createdAt,value
2019-03-11T00:02:15.741Z,3.77
2019-03-11T00:07:20.747Z,2.70
2019-03-11T00:12:25.676Z,1.67
2019-03-11T00:17:30.423Z,2.40
2019-03-11T00:22:35.106Z,2.33
2019-03-11T00:27:39.970Z,1.63
2019-03-11T00:33:03.187Z,2.17
2019-03-11T00:38:07.762Z,2.23
2019-03-11T00:43:12.495Z,1.90
2019-03-11T00:48:17.265Z,2.30
2019-03-11T00:53:22.266Z,2.93
2019-03-11T00:58:26.860Z,2.80
2019-03-11T01:03:33.803Z,2.77
2019-03-11T01:08:38.506Z,2.07
2019-03-11T01:13:43.173Z,1.90
2019-03-11T01:18:48.031Z,1.77
2019-03-11T01:23:52.706Z,1.90
2019-03-11T01:28:57.876Z,2.07
2019-03-11T01:34:02.481Z,2.40
2019-03-11T01:39:08.503Z,2.03
2019-03-11T01:44:13.306Z,2.20
2019-03-11T01:49:18.009Z,2.50
2019-03-11T01:54:22.710Z,2.27
2019-03-11T01:59:27.603Z,1.90
2019-03-11T02:04:32.143Z,1.53
2019-03-11T02:09:36.711Z,2.00
2019-03-11T02:14:41.391Z,1.73
2019-03-11T02:19:46.068Z,2.00
2019-03-11T02:24:50.878Z,2.10
2019-03-11T02:29:55.469Z,1.43
2019-03-11T02:35:00.064Z,1.90
2019-03-11T02:40:05.552Z,1.80
2019-03-11T02:45:10.521Z,2.33
2019-03-11T02:50:15.218Z,3.00
2019-03-11T02:55:19.902Z,3.40
2019-03-11T03:00:25.027Z,3.03
2019-03-11T03:05:44.855Z,2.87
2019-03-11T03:10:49.575Z,2.87
2019-03-11T03:15:54.379Z,3.67
2019-03-11T03:20:59.505Z,4.90
2019-03-11T03:26:04.306Z,5.07
2019-03-11T03:31:09.393Z,4.37
2019-03-11T03:36:14.067Z,4.27
2019-03-11T03:41:18.881Z,4.23
2019-03-11T03:46:23.544Z,3.20
2019-03-11T03:51:28.453Z,2.57
2019-03-11T03:56:33.107Z,2.93
2019-03-11T04:01:38.100Z,2.57
2019-03-11T04:06:42.725Z,2.50
2019-03-11T04:11:47.406Z,2.80
2019-03-11T04:16:52.000Z,2.20
2019-03-11T04:21:56.923Z,2.57
2019-03-11T04:27:06.788Z,2.90
2019-03-11T04:32:11.619Z,2.37
2019-03-11T04:37:16.182Z,2.83
2019-03-11T04:42:23.128Z,2.03
2019-03-11T04:47:27.725Z,2.17
2019-03-11T04:52:32.429Z,2.37
2019-03-11T04:57:45.249Z,1.80
2019-03-11T05:02:50.110Z,1.67
2019-03-11T05:07:54.836Z,2.10
2019-03-11T05:12:59.671Z,3.03
2019-03-11T05:18:04.753Z,2.07
2019-03-11T05:23:09.198Z,2.10
2019-03-11T05:28:13.865Z,1.50
2019-03-11T05:33:18.386Z,1.80
2019-03-11T05:38:23.593Z,2.00
2019-03-11T05:43:28.155Z,2.90
2019-03-11T05:48:33.150Z,2.50
2019-03-11T05:53:37.732Z,2.93
2019-03-11T05:58:42.322Z,4.17
2019-03-11T06:03:46.943Z,3.93
2019-03-11T06:08:55.307Z,4.40
2019-03-11T06:13:59.998Z,3.77
2019-03-11T06:19:04.788Z,3.03
2019-03-11T06:24:09.502Z,3.43
2019-03-11T06:29:14.165Z,4.33
2019-03-11T06:34:18.807Z,4.40
2019-03-11T06:39:23.490Z,2.80
2019-03-11T06:44:28.033Z,2.53
2019-03-11T06:49:32.703Z,2.13
2019-03-11T06:54:37.734Z,2.43
2019-03-11T06:59:42.308Z,2.80
2019-03-11T07:04:47.139Z,2.70
2019-03-11T07:09:52.127Z,2.77
2019-03-11T07:14:59.301Z,3.07
2019-03-11T07:20:03.570Z,3.17
2019-03-11T07:25:08.803Z,4.20
2019-03-11T07:30:13.502Z,2.60
2019-03-11T07:35:18.108Z,2.60
2019-03-11T07:40:29.553Z,3.00
2019-03-11T07:45:28.886Z,2.47
2019-03-11T07:50:33.564Z,2.73
2019-03-11T07:55:38.255Z,2.73
2019-03-11T08:00:53.410Z,2.67
2019-03-11T08:05:49.062Z,2.63
2019-03-11T08:10:53.705Z,2.73
2019-03-11T08:15:58.193Z,2.47
2019-03-11T08:21:02.803Z,2.65
2019-03-11T08:26:07.651Z,2.60
2019-03-11T08:31:12.599Z,2.57
2019-03-11T08:36:17.455Z,2.43
2019-03-11T08:41:22.180Z,2.70
2019-03-11T08:46:26.971Z,2.83
2019-03-11T08:51:31.475Z,2.83
2019-03-11T08:56:36.107Z,3.17
2019-03-11T09:01:40.916Z,3.60
2019-03-11T09:06:45.554Z,4.10
2019-03-11T09:11:50.122Z,3.40
2019-03-11T09:16:54.975Z,3.93
2019-03-11T09:21:59.768Z,4.13
2019-03-11T09:27:04.562Z,4.20
2019-03-11T09:32:09.343Z,4.37
2019-03-11T09:37:14.259Z,4.63
2019-03-11T09:42:19.759Z,5.30
2019-03-11T09:47:24.395Z,3.70
2019-03-11T09:52:29.091Z,3.27
2019-03-11T09:57:34.026Z,3.67
2019-03-11T10:02:38.715Z,4.23
2019-03-11T10:07:43.432Z,3.53
2019-03-11T10:12:48.151Z,2.40
2019-03-11T10:17:52.760Z,2.20
2019-03-11T10:22:57.410Z,3.23
2019-03-11T10:28:02.007Z,1.90
2019-03-11T10:33:06.700Z,1.87
2019-03-11T10:38:11.400Z,2.30
2019-03-11T10:43:16.106Z,1.87
2019-03-11T10:48:21.151Z,2.30
2019-03-11T10:53:25.731Z,2.10
2019-03-11T10:58:30.344Z,1.77
2019-03-11T11:03:37.827Z,1.70
2019-03-11T11:08:42.454Z,2.47
2019-03-11T11:13:47.068Z,2.50
2019-03-11T11:18:51.743Z,1.57
2019-03-11T11:23:56.641Z,1.93
2019-03-11T11:29:01.375Z,2.30
2019-03-11T11:34:06.401Z,2.10
2019-03-11T11:39:11.230Z,1.87
2019-03-11T11:44:15.877Z,2.10
2019-03-11T11:49:20.796Z,1.60
2019-03-11T11:54:25.467Z,2.27
2019-03-11T11:59:30.283Z,2.20
2019-03-11T12:04:34.890Z,1.50
2019-03-11T12:09:39.534Z,1.60
2019-03-11T12:14:44.454Z,1.90
2019-03-11T12:19:48.954Z,1.67
2019-03-11T12:24:53.674Z,1.90
2019-03-11T12:29:58.442Z,1.90
2019-03-11T12:35:03.097Z,1.90
2019-03-11T12:40:08.840Z,2.03
2019-03-11T12:45:14.654Z,2.07
2019-03-11T12:50:19.961Z,2.03
2019-03-11T12:55:24.902Z,1.87
2019-03-11T13:00:29.623Z,1.90
2019-03-11T13:05:34.406Z,1.67
2019-03-11T13:10:39.176Z,1.73
2019-03-11T13:15:43.874Z,1.60
2019-03-11T13:20:48.986Z,2.03
2019-03-11T13:25:53.703Z,2.20
2019-03-11T13:30:58.374Z,1.93
2019-03-11T13:36:03.151Z,2.67
2019-03-11T13:41:07.736Z,1.73
2019-03-11T13:46:12.367Z,2.10
2019-03-11T13:51:17.041Z,1.67
2019-03-11T13:56:21.756Z,2.43
2019-03-11T14:01:26.469Z,1.87
2019-03-11T14:06:31.058Z,2.23
2019-03-11T14:11:35.698Z,2.10
2019-03-11T14:16:40.566Z,1.53
2019-03-11T14:21:45.227Z,1.77
2019-03-11T14:26:49.823Z,2.10
2019-03-11T14:31:54.418Z,1.53
2019-03-11T14:36:59.011Z,2.30
2019-03-11T14:42:03.678Z,2.10
2019-03-11T14:47:08.281Z,2.17
2019-03-11T14:52:12.906Z,1.83
2019-03-11T14:57:17.506Z,1.40
2019-03-11T15:02:22.118Z,2.30
2019-03-11T15:07:27.093Z,1.77
2019-03-11T15:12:31.979Z,1.90
2019-03-11T15:17:36.667Z,1.83
2019-03-11T15:22:41.375Z,1.87
2019-03-11T15:27:46.347Z,1.87
2019-03-11T15:32:51.093Z,2.10
2019-03-11T15:37:56.004Z,1.67
2019-03-11T15:43:00.571Z,1.63
2019-03-11T15:48:05.202Z,2.17
2019-03-11T15:53:09.827Z,1.67
2019-03-11T15:58:14.500Z,2.10
2019-03-11T16:03:19.318Z,2.17
2019-03-11T16:08:24.219Z,2.17
2019-03-11T16:13:28.900Z,2.37
2019-03-11T16:18:33.474Z,1.93
2019-03-11T16:23:38.719Z,2.07
2019-03-11T16:28:48.286Z,2.07
2019-03-11T16:33:52.823Z,1.83
2019-03-11T16:38:57.543Z,1.70
2019-03-11T16:44:02.171Z,1.97
2019-03-11T16:49:07.168Z,2.00
2019-03-11T16:54:11.872Z,2.33
2019-03-11T16:59:16.546Z,2.50
2019-03-11T17:04:21.101Z,1.87
2019-03-11T17:09:25.781Z,2.00
2019-03-11T17:14:30.497Z,2.20
2019-03-11T17:19:35.232Z,1.77
2019-03-11T17:24:40.018Z,2.17
2019-03-11T17:29:44.769Z,1.60
2019-03-11T17:34:49.506Z,1.90
2019-03-11T17:39:54.186Z,2.37
2019-03-11T17:44:58.902Z,2.20
2019-03-11T17:50:03.778Z,2.17
2019-03-11T17:55:08.963Z,2.20
2019-03-11T18:00:19.373Z,2.50
2019-03-11T18:05:24.329Z,1.90
2019-03-11T18:10:29.056Z,2.80
2019-03-11T18:15:33.653Z,2.73
2019-03-11T18:20:38.478Z,2.03
2019-03-11T18:25:43.231Z,2.30
2019-03-11T18:30:48.178Z,2.00
2019-03-11T18:35:52.775Z,2.40
2019-03-11T18:40:57.422Z,2.63
2019-03-11T18:46:02.043Z,1.90
2019-03-11T18:51:10.775Z,2.27
2019-03-11T18:56:13.092Z,2.20
2019-03-11T19:01:17.849Z,2.53
2019-03-11T19:06:22.577Z,1.80
2019-03-11T19:11:27.450Z,2.83
2019-03-11T19:16:32.291Z,2.30
2019-03-11T19:21:37.104Z,2.20
2019-03-11T19:26:41.843Z,2.23
2019-03-11T19:31:47.007Z,2.53
2019-03-11T19:36:52.561Z,2.13
2019-03-11T19:41:59.073Z,2.53
2019-03-11T19:47:06.778Z,2.37
2019-03-11T19:52:33.264Z,2.70
2019-03-11T19:57:38.406Z,3.20
2019-03-11T20:02:44.244Z,3.20
2019-03-11T20:07:49.898Z,2.53
2019-03-11T20:12:55.741Z,2.73
2019-03-11T20:18:01.671Z,2.07
2019-03-11T20:23:07.680Z,2.10
2019-03-11T20:28:12.984Z,2.40
2019-03-11T20:33:39.090Z,2.50
2019-03-11T20:39:04.568Z,2.30
2019-03-11T20:44:28.290Z,2.17
2019-03-11T20:49:51.682Z,2.10
2019-03-11T20:55:15.754Z,2.40
2019-03-11T21:00:23.719Z,2.50
2019-03-11T21:05:28.610Z,2.67
2019-03-11T21:10:33.360Z,2.70
2019-03-11T21:15:38.125Z,2.20
2019-03-11T21:20:43.040Z,3.23
2019-03-11T21:25:47.854Z,2.67
2019-03-11T21:30:53.081Z,3.00
2019-03-11T21:36:01.772Z,2.53
2019-03-11T21:41:07.667Z,2.50
2019-03-11T21:46:23.661Z,2.87
2019-03-11T21:51:29.315Z,4.17
2019-03-11T21:56:33.993Z,5.10
2019-03-11T22:01:38.671Z,4.70
2019-03-11T22:06:43.263Z,5.37
2019-03-11T22:11:48.209Z,4.23
2019-03-11T22:16:52.977Z,3.17
2019-03-11T22:21:59.583Z,2.90
2019-03-11T22:27:04.319Z,3.80
2019-03-11T22:32:08.859Z,2.93
2019-03-11T22:37:13.659Z,2.47
2019-03-11T22:42:18.260Z,2.30
2019-03-11T22:47:26.011Z,3.07
2019-03-11T22:52:30.610Z,2.53
2019-03-11T22:57:35.282Z,2.97
2019-03-11T23:02:40.525Z,2.23
2019-03-11T23:07:45.442Z,3.00
2019-03-11T23:12:50.099Z,3.40
2019-03-11T23:17:54.721Z,2.50
2019-03-11T23:22:59.371Z,2.77
2019-03-11T23:28:04.039Z,2.47
2019-03-11T23:33:08.961Z,2.70
2019-03-11T23:38:13.681Z,2.33
2019-03-11T23:43:18.316Z,3.13
2019-03-11T23:48:22.894Z,2.70
2019-03-11T23:53:27.368Z,2.93
2019-03-11T23:58:32.046Z,2.87
